sensor_id;sensor_type;location;lat;lon;timestamp;P1;durP1;ratioP1;P2;durP2;ratioP2
76336;SDS011;65157;50.082;18.178;2023-02-28T00:00:48;15.40;;;6.20;;
76336;SDS011;65157;50.082;18.178;2023-02-28T00:03:21;16.10;;;6.60;;
76336;SDS011;65157;50.082;18.178;2023-02-28T00:05:47;15.00;;;6.90;;
76336;SDS011;65157;50.082;18.178;2023-02-28T00:08:13;15.60;;;6.80;;
76336;SDS011;65157;50.082;18.178;2023-02-28T00:10:39;13.60;;;6.50;;
76336;SDS011;65157;50.082;18.178;2023-02-28T00:13:05;14.70;;;6.40;;
76336;SDS011;65157;50.082;18.178;2023-02-28T00:15:32;12.20;;;6.10;;
76336;SDS011;65157;50.082;18.178;2023-02-28T00:17:59;16.60;;;6.50;;
76336;SDS011;65157;50.082;18.178;2023-02-28T00:20:25;15.50;;;6.40;;
76336;SDS011;65157;50.082;18.178;2023-02-28T00:22:52;13.70;;;5.70;;
76336;SDS011;65157;50.082;18.178;2023-02-28T00:25:21;11.80;;;5.70;;
76336;SDS011;65157;50.082;18.178;2023-02-28T00:27:49;14.10;;;6.00;;
76336;SDS011;65157;50.082;18.178;2023-02-28T00:32:46;11.60;;;5.90;;
76336;SDS011;65157;50.082;18.178;2023-02-28T00:35:13;15.00;;;6.90;;
76336;SDS011;65157;50.082;18.178;2023-02-28T00:37:39;12.70;;;6.00;;
76336;SDS011;65157;50.082;18.178;2023-02-28T00:40:05;12.80;;;5.80;;
76336;SDS011;65157;50.082;18.178;2023-02-28T00:42:33;12.40;;;5.50;;
76336;SDS011;65157;50.082;18.178;2023-02-28T00:44:59;12.60;;;5.80;;
76336;SDS011;65157;50.082;18.178;2023-02-28T00:47:25;15.40;;;6.90;;
76336;SDS011;65157;50.082;18.178;2023-02-28T00:49:52;14.90;;;6.60;;
76336;SDS011;65157;50.082;18.178;2023-02-28T00:52:18;12.20;;;6.40;;
76336;SDS011;65157;50.082;18.178;2023-02-28T00:54:43;12.60;;;6.20;;
76336;SDS011;65157;50.082;18.178;2023-02-28T00:57:09;14.00;;;5.70;;
76336;SDS011;65157;50.082;18.178;2023-02-28T00:59:35;18.70;;;6.50;;
76336;SDS011;65157;50.082;18.178;2023-02-28T01:02:01;16.00;;;6.50;;
76336;SDS011;65157;50.082;18.178;2023-02-28T01:04:27;17.20;;;6.90;;
76336;SDS011;65157;50.082;18.178;2023-02-28T01:06:53;15.70;;;6.10;;
76336;SDS011;65157;50.082;18.178;2023-02-28T01:09:19;15.80;;;6.30;;
76336;SDS011;65157;50.082;18.178;2023-02-28T01:11:45;16.90;;;6.90;;
76336;SDS011;65157;50.082;18.178;2023-02-28T01:14:17;14.00;;;6.30;;
76336;SDS011;65157;50.082;18.178;2023-02-28T01:16:44;16.00;;;6.10;;
76336;SDS011;65157;50.082;18.178;2023-02-28T01:19:10;15.00;;;7.00;;
76336;SDS011;65157;50.082;18.178;2023-02-28T01:21:36;14.80;;;5.70;;
76336;SDS011;65157;50.082;18.178;2023-02-28T01:24:03;10.90;;;5.80;;
76336;SDS011;65157;50.082;18.178;2023-02-28T01:26:30;13.90;;;6.40;;
76336;SDS011;65157;50.082;18.178;2023-02-28T01:28:56;14.70;;;6.20;;
76336;SDS011;65157;50.082;18.178;2023-02-28T01:31:23;15.40;;;6.90;;
76336;SDS011;65157;50.082;18.178;2023-02-28T01:33:49;17.00;;;7.00;;
76336;SDS011;65157;50.082;18.178;2023-02-28T01:36:17;14.90;;;7.30;;
76336;SDS011;65157;50.082;18.178;2023-02-28T01:38:46;16.20;;;6.60;;
76336;SDS011;65157;50.082;18.178;2023-02-28T01:41:19;18.30;;;7.40;;
76336;SDS011;65157;50.082;18.178;2023-02-28T01:46:13;16.90;;;7.10;;
76336;SDS011;65157;50.082;18.178;2023-02-28T01:48:42;11.70;;;5.60;;
76336;SDS011;65157;50.082;18.178;2023-02-28T01:51:18;16.10;;;7.70;;
76336;SDS011;65157;50.082;18.178;2023-02-28T01:53:55;14.60;;;6.00;;
76336;SDS011;65157;50.082;18.178;2023-02-28T01:56:26;16.30;;;6.40;;
76336;SDS011;65157;50.082;18.178;2023-02-28T01:58:56;15.80;;;7.00;;
76336;SDS011;65157;50.082;18.178;2023-02-28T02:01:25;14.80;;;5.90;;
76336;SDS011;65157;50.082;18.178;2023-02-28T02:03:54;13.90;;;5.50;;
76336;SDS011;65157;50.082;18.178;2023-02-28T02:06:28;13.00;;;5.80;;
76336;SDS011;65157;50.082;18.178;2023-02-28T02:08:56;10.60;;;5.20;;
76336;SDS011;65157;50.082;18.178;2023-02-28T02:11:22;13.10;;;6.10;;
76336;SDS011;65157;50.082;18.178;2023-02-28T02:27:37;11.00;;;5.00;;
76336;SDS011;65157;50.082;18.178;2023-02-28T02:39:01;12.10;;;5.80;;
76336;SDS011;65157;50.082;18.178;2023-02-28T02:44:03;8.90;;;5.00;;
76336;SDS011;65157;50.082;18.178;2023-02-28T02:46:37;10.10;;;4.90;;
76336;SDS011;65157;50.082;18.178;2023-02-28T02:49:09;9.40;;;5.20;;
76336;SDS011;65157;50.082;18.178;2023-02-28T02:51:41;11.10;;;4.60;;
76336;SDS011;65157;50.082;18.178;2023-02-28T02:56:37;11.00;;;4.50;;
76336;SDS011;65157;50.082;18.178;2023-02-28T02:59:07;9.80;;;4.70;;
76336;SDS011;65157;50.082;18.178;2023-02-28T03:01:36;10.20;;;4.50;;
76336;SDS011;65157;50.082;18.178;2023-02-28T03:04:12;13.80;;;5.70;;
76336;SDS011;65157;50.082;18.178;2023-02-28T03:06:44;11.40;;;4.90;;
76336;SDS011;65157;50.082;18.178;2023-02-28T03:09:10;9.90;;;5.00;;
76336;SDS011;65157;50.082;18.178;2023-02-28T03:11:36;11.80;;;5.30;;
76336;SDS011;65157;50.082;18.178;2023-02-28T03:24:50;11.80;;;5.20;;
76336;SDS011;65157;50.082;18.178;2023-02-28T03:27:41;11.60;;;5.60;;
76336;SDS011;65157;50.082;18.178;2023-02-28T03:30:19;12.50;;;5.70;;
76336;SDS011;65157;50.082;18.178;2023-02-28T03:32:55;10.30;;;5.30;;
76336;SDS011;65157;50.082;18.178;2023-02-28T03:35:31;11.10;;;5.60;;
76336;SDS011;65157;50.082;18.178;2023-02-28T03:41:02;10.80;;;5.10;;
76336;SDS011;65157;50.082;18.178;2023-02-28T03:43:35;11.20;;;4.80;;
76336;SDS011;65157;50.082;18.178;2023-02-28T03:46:04;9.50;;;4.60;;
76336;SDS011;65157;50.082;18.178;2023-02-28T03:48:41;9.40;;;4.90;;
76336;SDS011;65157;50.082;18.178;2023-02-28T03:51:13;13.90;;;5.20;;
76336;SDS011;65157;50.082;18.178;2023-02-28T03:53:45;12.00;;;5.40;;
76336;SDS011;65157;50.082;18.178;2023-02-28T03:56:17;13.50;;;4.90;;
76336;SDS011;65157;50.082;18.178;2023-02-28T04:01:54;12.00;;;5.30;;
76336;SDS011;65157;50.082;18.178;2023-02-28T04:04:20;11.10;;;5.40;;
76336;SDS011;65157;50.082;18.178;2023-02-28T04:06:49;12.80;;;5.90;;
76336;SDS011;65157;50.082;18.178;2023-02-28T04:09:18;12.90;;;5.10;;
76336;SDS011;65157;50.082;18.178;2023-02-28T04:11:45;7.50;;;4.10;;
76336;SDS011;65157;50.082;18.178;2023-02-28T04:14:17;8.70;;;4.80;;
76336;SDS011;65157;50.082;18.178;2023-02-28T04:16:43;9.20;;;4.60;;
76336;SDS011;65157;50.082;18.178;2023-02-28T04:19:10;10.30;;;4.60;;
76336;SDS011;65157;50.082;18.178;2023-02-28T04:21:41;10.10;;;4.70;;
76336;SDS011;65157;50.082;18.178;2023-02-28T04:24:13;7.60;;;4.20;;
76336;SDS011;65157;50.082;18.178;2023-02-28T04:26:43;12.10;;;4.90;;
76336;SDS011;65157;50.082;18.178;2023-02-28T04:29:12;15.10;;;6.90;;
76336;SDS011;65157;50.082;18.178;2023-02-28T04:31:43;23.90;;;10.30;;
76336;SDS011;65157;50.082;18.178;2023-02-28T04:34:09;27.30;;;10.80;;
76336;SDS011;65157;50.082;18.178;2023-02-28T04:36:36;25.50;;;11.00;;
76336;SDS011;65157;50.082;18.178;2023-02-28T04:39:02;21.70;;;10.20;;
76336;SDS011;65157;50.082;18.178;2023-02-28T04:41:28;19.10;;;9.50;;
76336;SDS011;65157;50.082;18.178;2023-02-28T04:43:54;15.80;;;7.30;;
76336;SDS011;65157;50.082;18.178;2023-02-28T04:46:20;12.00;;;6.90;;
76336;SDS011;65157;50.082;18.178;2023-02-28T04:48:46;13.30;;;7.20;;
76336;SDS011;65157;50.082;18.178;2023-02-28T04:51:15;16.50;;;8.50;;
76336;SDS011;65157;50.082;18.178;2023-02-28T04:53:43;16.50;;;8.10;;
76336;SDS011;65157;50.082;18.178;2023-02-28T04:56:11;14.00;;;7.40;;
76336;SDS011;65157;50.082;18.178;2023-02-28T04:58:39;15.20;;;7.30;;
76336;SDS011;65157;50.082;18.178;2023-02-28T05:01:06;13.80;;;6.30;;
76336;SDS011;65157;50.082;18.178;2023-02-28T05:03:44;12.10;;;6.70;;
76336;SDS011;65157;50.082;18.178;2023-02-28T05:06:10;17.80;;;7.70;;
76336;SDS011;65157;50.082;18.178;2023-02-28T05:08:38;13.20;;;6.70;;
76336;SDS011;65157;50.082;18.178;2023-02-28T05:13:41;14.00;;;6.20;;
76336;SDS011;65157;50.082;18.178;2023-02-28T05:16:08;15.70;;;6.00;;
76336;SDS011;65157;50.082;18.178;2023-02-28T05:18:34;12.30;;;6.00;;
76336;SDS011;65157;50.082;18.178;2023-02-28T05:21:00;12.50;;;6.00;;
76336;SDS011;65157;50.082;18.178;2023-02-28T05:23:26;13.00;;;5.80;;
76336;SDS011;65157;50.082;18.178;2023-02-28T05:25:52;13.90;;;6.70;;
76336;SDS011;65157;50.082;18.178;2023-02-28T05:28:18;13.20;;;6.10;;
76336;SDS011;65157;50.082;18.178;2023-02-28T05:30:46;12.00;;;6.10;;
76336;SDS011;65157;50.082;18.178;2023-02-28T05:33:12;13.20;;;6.10;;
76336;SDS011;65157;50.082;18.178;2023-02-28T05:35:40;11.10;;;5.50;;
76336;SDS011;65157;50.082;18.178;2023-02-28T05:38:07;11.70;;;6.40;;
76336;SDS011;65157;50.082;18.178;2023-02-28T05:40:34;12.30;;;5.70;;
76336;SDS011;65157;50.082;18.178;2023-02-28T05:43:09;13.00;;;6.10;;
76336;SDS011;65157;50.082;18.178;2023-02-28T05:45:39;14.00;;;6.30;;
76336;SDS011;65157;50.082;18.178;2023-02-28T05:48:12;14.70;;;6.20;;
76336;SDS011;65157;50.082;18.178;2023-02-28T05:50:38;15.40;;;6.40;;
76336;SDS011;65157;50.082;18.178;2023-02-28T05:53:04;12.60;;;5.40;;
76336;SDS011;65157;50.082;18.178;2023-02-28T05:55:30;13.40;;;6.30;;
76336;SDS011;65157;50.082;18.178;2023-02-28T05:57:56;14.50;;;6.00;;
76336;SDS011;65157;50.082;18.178;2023-02-28T06:00:22;12.20;;;5.50;;
76336;SDS011;65157;50.082;18.178;2023-02-28T06:02:48;12.50;;;5.90;;
76336;SDS011;65157;50.082;18.178;2023-02-28T06:05:15;15.40;;;5.70;;
76336;SDS011;65157;50.082;18.178;2023-02-28T06:07:43;12.70;;;5.80;;
76336;SDS011;65157;50.082;18.178;2023-02-28T06:10:10;12.00;;;5.90;;
76336;SDS011;65157;50.082;18.178;2023-02-28T06:12:37;12.40;;;5.20;;
76336;SDS011;65157;50.082;18.178;2023-02-28T06:15:03;14.00;;;5.90;;
76336;SDS011;65157;50.082;18.178;2023-02-28T06:17:33;13.20;;;5.90;;
76336;SDS011;65157;50.082;18.178;2023-02-28T06:19:59;11.80;;;6.00;;
76336;SDS011;65157;50.082;18.178;2023-02-28T06:22:25;15.30;;;6.40;;
76336;SDS011;65157;50.082;18.178;2023-02-28T06:24:51;12.50;;;5.70;;
76336;SDS011;65157;50.082;18.178;2023-02-28T06:27:17;16.40;;;6.10;;
76336;SDS011;65157;50.082;18.178;2023-02-28T06:29:43;15.50;;;5.90;;
76336;SDS011;65157;50.082;18.178;2023-02-28T06:32:09;11.00;;;6.00;;
76336;SDS011;65157;50.082;18.178;2023-02-28T06:34:36;13.00;;;6.60;;
76336;SDS011;65157;50.082;18.178;2023-02-28T06:37:02;13.90;;;6.70;;
76336;SDS011;65157;50.082;18.178;2023-02-28T06:39:29;13.40;;;6.20;;
76336;SDS011;65157;50.082;18.178;2023-02-28T06:41:55;18.00;;;6.50;;
76336;SDS011;65157;50.082;18.178;2023-02-28T06:44:21;15.40;;;6.40;;
76336;SDS011;65157;50.082;18.178;2023-02-28T06:46:48;16.10;;;6.50;;
76336;SDS011;65157;50.082;18.178;2023-02-28T06:51:43;17.60;;;6.60;;
76336;SDS011;65157;50.082;18.178;2023-02-28T06:54:10;15.00;;;6.20;;
76336;SDS011;65157;50.082;18.178;2023-02-28T06:56:45;12.00;;;6.30;;
76336;SDS011;65157;50.082;18.178;2023-02-28T06:59:12;14.80;;;6.50;;
76336;SDS011;65157;50.082;18.178;2023-02-28T07:01:41;13.50;;;6.50;;
76336;SDS011;65157;50.082;18.178;2023-02-28T07:04:07;17.50;;;7.00;;
76336;SDS011;65157;50.082;18.178;2023-02-28T07:06:33;15.20;;;6.60;;
76336;SDS011;65157;50.082;18.178;2023-02-28T07:08:59;13.20;;;6.70;;
76336;SDS011;65157;50.082;18.178;2023-02-28T07:11:26;15.20;;;6.60;;
76336;SDS011;65157;50.082;18.178;2023-02-28T07:13:53;15.10;;;6.90;;
76336;SDS011;65157;50.082;18.178;2023-02-28T07:16:20;17.10;;;6.20;;
76336;SDS011;65157;50.082;18.178;2023-02-28T07:18:48;15.10;;;6.90;;
76336;SDS011;65157;50.082;18.178;2023-02-28T07:21:14;15.30;;;7.00;;
76336;SDS011;65157;50.082;18.178;2023-02-28T07:23:42;15.60;;;6.40;;
76336;SDS011;65157;50.082;18.178;2023-02-28T07:26:12;13.60;;;7.30;;
76336;SDS011;65157;50.082;18.178;2023-02-28T07:28:41;15.70;;;6.90;;
76336;SDS011;65157;50.082;18.178;2023-02-28T07:31:08;13.10;;;6.80;;
76336;SDS011;65157;50.082;18.178;2023-02-28T07:33:35;15.20;;;7.10;;
76336;SDS011;65157;50.082;18.178;2023-02-28T07:36:05;16.00;;;7.00;;
76336;SDS011;65157;50.082;18.178;2023-02-28T07:38:43;17.40;;;6.70;;
76336;SDS011;65157;50.082;18.178;2023-02-28T07:41:14;16.70;;;7.40;;
76336;SDS011;65157;50.082;18.178;2023-02-28T07:43:45;20.50;;;8.20;;
76336;SDS011;65157;50.082;18.178;2023-02-28T07:46:12;19.20;;;8.50;;
76336;SDS011;65157;50.082;18.178;2023-02-28T07:48:42;19.90;;;8.60;;
76336;SDS011;65157;50.082;18.178;2023-02-28T07:51:09;22.60;;;8.00;;
76336;SDS011;65157;50.082;18.178;2023-02-28T07:53:35;21.20;;;8.80;;
76336;SDS011;65157;50.082;18.178;2023-02-28T07:56:02;19.10;;;8.40;;
76336;SDS011;65157;50.082;18.178;2023-02-28T07:58:29;20.40;;;9.40;;
76336;SDS011;65157;50.082;18.178;2023-02-28T08:00:56;22.40;;;8.90;;
76336;SDS011;65157;50.082;18.178;2023-02-28T08:03:24;17.90;;;8.20;;
76336;SDS011;65157;50.082;18.178;2023-02-28T08:05:50;18.60;;;8.40;;
76336;SDS011;65157;50.082;18.178;2023-02-28T08:08:16;19.70;;;8.70;;
76336;SDS011;65157;50.082;18.178;2023-02-28T08:10:42;22.00;;;9.00;;
76336;SDS011;65157;50.082;18.178;2023-02-28T08:13:08;21.20;;;9.50;;
76336;SDS011;65157;50.082;18.178;2023-02-28T08:15:35;20.10;;;8.50;;
76336;SDS011;65157;50.082;18.178;2023-02-28T08:18:01;20.90;;;8.40;;
76336;SDS011;65157;50.082;18.178;2023-02-28T08:20:37;26.10;;;8.70;;
76336;SDS011;65157;50.082;18.178;2023-02-28T08:23:09;20.20;;;9.00;;
76336;SDS011;65157;50.082;18.178;2023-02-28T08:25:35;19.70;;;8.50;;
76336;SDS011;65157;50.082;18.178;2023-02-28T08:28:04;20.30;;;8.80;;
76336;SDS011;65157;50.082;18.178;2023-02-28T08:30:34;24.50;;;9.80;;
76336;SDS011;65157;50.082;18.178;2023-02-28T08:33:03;20.80;;;10.00;;
76336;SDS011;65157;50.082;18.178;2023-02-28T08:35:29;21.90;;;9.10;;
76336;SDS011;65157;50.082;18.178;2023-02-28T08:37:55;25.40;;;9.50;;
76336;SDS011;65157;50.082;18.178;2023-02-28T08:40:21;21.70;;;9.00;;
76336;SDS011;65157;50.082;18.178;2023-02-28T08:42:47;25.10;;;9.70;;
76336;SDS011;65157;50.082;18.178;2023-02-28T08:45:14;20.90;;;9.90;;
76336;SDS011;65157;50.082;18.178;2023-02-28T08:47:40;20.00;;;8.90;;
76336;SDS011;65157;50.082;18.178;2023-02-28T08:50:06;21.60;;;8.50;;
76336;SDS011;65157;50.082;18.178;2023-02-28T08:52:33;23.90;;;9.80;;
76336;SDS011;65157;50.082;18.178;2023-02-28T08:54:59;20.90;;;9.60;;
76336;SDS011;65157;50.082;18.178;2023-02-28T08:57:28;19.40;;;8.60;;
76336;SDS011;65157;50.082;18.178;2023-02-28T08:59:54;25.20;;;10.40;;
76336;SDS011;65157;50.082;18.178;2023-02-28T09:02:19;23.60;;;10.50;;
76336;SDS011;65157;50.082;18.178;2023-02-28T09:04:45;22.00;;;9.00;;
76336;SDS011;65157;50.082;18.178;2023-02-28T09:07:14;19.10;;;8.00;;
76336;SDS011;65157;50.082;18.178;2023-02-28T09:09:43;19.20;;;8.40;;
76336;SDS011;65157;50.082;18.178;2023-02-28T09:12:12;18.10;;;8.40;;
76336;SDS011;65157;50.082;18.178;2023-02-28T09:14:41;18.40;;;8.10;;
76336;SDS011;65157;50.082;18.178;2023-02-28T09:17:07;18.60;;;7.40;;
76336;SDS011;65157;50.082;18.178;2023-02-28T09:19:33;14.90;;;7.10;;
76336;SDS011;65157;50.082;18.178;2023-02-28T09:21:59;14.30;;;6.00;;
76336;SDS011;65157;50.082;18.178;2023-02-28T09:24:25;11.20;;;5.80;;
76336;SDS011;65157;50.082;18.178;2023-02-28T09:26:51;19.90;;;7.10;;
76336;SDS011;65157;50.082;18.178;2023-02-28T09:29:18;17.90;;;8.00;;
76336;SDS011;65157;50.082;18.178;2023-02-28T09:31:44;10.60;;;5.80;;
76336;SDS011;65157;50.082;18.178;2023-02-28T09:34:10;17.80;;;7.80;;
76336;SDS011;65157;50.082;18.178;2023-02-28T09:36:39;18.30;;;7.90;;
76336;SDS011;65157;50.082;18.178;2023-02-28T09:39:05;13.50;;;7.70;;
76336;SDS011;65157;50.082;18.178;2023-02-28T09:41:35;14.00;;;7.60;;
76336;SDS011;65157;50.082;18.178;2023-02-28T09:44:07;16.30;;;6.50;;
76336;SDS011;65157;50.082;18.178;2023-02-28T09:46:44;14.50;;;6.10;;
76336;SDS011;65157;50.082;18.178;2023-02-28T09:49:15;10.30;;;4.60;;
76336;SDS011;65157;50.082;18.178;2023-02-28T09:51:55;9.00;;;5.20;;
76336;SDS011;65157;50.082;18.178;2023-02-28T09:54:28;14.20;;;6.20;;
76336;SDS011;65157;50.082;18.178;2023-02-28T09:57:22;10.50;;;4.90;;
76336;SDS011;65157;50.082;18.178;2023-02-28T10:00:15;13.50;;;5.90;;
76336;SDS011;65157;50.082;18.178;2023-02-28T10:02:54;10.20;;;5.30;;
76336;SDS011;65157;50.082;18.178;2023-02-28T10:05:23;10.00;;;4.50;;
76336;SDS011;65157;50.082;18.178;2023-02-28T10:08:12;10.30;;;5.60;;
76336;SDS011;65157;50.082;18.178;2023-02-28T10:10:40;10.70;;;4.80;;
76336;SDS011;65157;50.082;18.178;2023-02-28T10:13:53;9.10;;;5.00;;
76336;SDS011;65157;50.082;18.178;2023-02-28T10:16:19;12.80;;;5.60;;
76336;SDS011;65157;50.082;18.178;2023-02-28T10:18:55;12.00;;;5.40;;
76336;SDS011;65157;50.082;18.178;2023-02-28T10:21:47;12.70;;;5.80;;
76336;SDS011;65157;50.082;18.178;2023-02-28T10:24:30;12.80;;;5.40;;
76336;SDS011;65157;50.082;18.178;2023-02-28T10:27:14;9.90;;;4.90;;
76336;SDS011;65157;50.082;18.178;2023-02-28T10:29:46;10.90;;;5.50;;
76336;SDS011;65157;50.082;18.178;2023-02-28T10:32:15;9.10;;;5.10;;
76336;SDS011;65157;50.082;18.178;2023-02-28T10:34:44;10.60;;;5.60;;
76336;SDS011;65157;50.082;18.178;2023-02-28T10:37:20;11.10;;;6.10;;
76336;SDS011;65157;50.082;18.178;2023-02-28T10:39:48;11.20;;;5.30;;
76336;SDS011;65157;50.082;18.178;2023-02-28T10:42:26;8.70;;;5.10;;
76336;SDS011;65157;50.082;18.178;2023-02-28T10:47:38;9.70;;;5.80;;
76336;SDS011;65157;50.082;18.178;2023-02-28T10:53:13;11.00;;;5.20;;
76336;SDS011;65157;50.082;18.178;2023-02-28T10:55:43;11.00;;;5.50;;
76336;SDS011;65157;50.082;18.178;2023-02-28T10:58:26;8.20;;;4.80;;
76336;SDS011;65157;50.082;18.178;2023-02-28T11:00:54;8.30;;;5.20;;
76336;SDS011;65157;50.082;18.178;2023-02-28T11:06:08;9.20;;;5.00;;
76336;SDS011;65157;50.082;18.178;2023-02-28T11:08:46;11.60;;;6.30;;
76336;SDS011;65157;50.082;18.178;2023-02-28T11:11:15;11.20;;;6.00;;
76336;SDS011;65157;50.082;18.178;2023-02-28T11:13:41;9.50;;;5.30;;
76336;SDS011;65157;50.082;18.178;2023-02-28T11:16:09;11.60;;;5.90;;
76336;SDS011;65157;50.082;18.178;2023-02-28T11:18:47;10.30;;;6.00;;
76336;SDS011;65157;50.082;18.178;2023-02-28T11:21:19;10.90;;;6.00;;
76336;SDS011;65157;50.082;18.178;2023-02-28T11:23:54;11.00;;;6.10;;
76336;SDS011;65157;50.082;18.178;2023-02-28T11:26:43;13.00;;;6.00;;
76336;SDS011;65157;50.082;18.178;2023-02-28T11:29:29;12.30;;;6.60;;
76336;SDS011;65157;50.082;18.178;2023-02-28T11:34:30;13.80;;;7.10;;
76336;SDS011;65157;50.082;18.178;2023-02-28T11:36:57;11.70;;;6.20;;
76336;SDS011;65157;50.082;18.178;2023-02-28T11:39:25;12.90;;;7.00;;
76336;SDS011;65157;50.082;18.178;2023-02-28T11:42:01;8.80;;;5.00;;
76336;SDS011;65157;50.082;18.178;2023-02-28T11:44:48;13.30;;;6.60;;
76336;SDS011;65157;50.082;18.178;2023-02-28T11:53:40;8.70;;;5.60;;
76336;SDS011;65157;50.082;18.178;2023-02-28T12:05:23;9.70;;;5.80;;
76336;SDS011;65157;50.082;18.178;2023-02-28T12:19:26;10.10;;;5.60;;
76336;SDS011;65157;50.082;18.178;2023-02-28T12:25:13;11.90;;;5.90;;
76336;SDS011;65157;50.082;18.178;2023-02-28T12:28:04;11.00;;;6.60;;
76336;SDS011;65157;50.082;18.178;2023-02-28T12:30:35;11.00;;;6.00;;
76336;SDS011;65157;50.082;18.178;2023-02-28T12:33:36;11.70;;;7.10;;
76336;SDS011;65157;50.082;18.178;2023-02-28T12:36:11;12.00;;;6.80;;
76336;SDS011;65157;50.082;18.178;2023-02-28T12:38:44;11.40;;;7.00;;
76336;SDS011;65157;50.082;18.178;2023-02-28T12:41:22;11.50;;;7.40;;
76336;SDS011;65157;50.082;18.178;2023-02-28T12:44:54;13.20;;;7.20;;
76336;SDS011;65157;50.082;18.178;2023-02-28T12:47:01;16.50;;;7.60;;
76336;SDS011;65157;50.082;18.178;2023-02-28T12:52:00;13.70;;;7.70;;
76336;SDS011;65157;50.082;18.178;2023-02-28T12:54:35;13.90;;;7.70;;
76336;SDS011;65157;50.082;18.178;2023-02-28T12:59:50;15.90;;;7.80;;
76336;SDS011;65157;50.082;18.178;2023-02-28T13:10:53;13.40;;;7.70;;
76336;SDS011;65157;50.082;18.178;2023-02-28T13:13:21;13.10;;;7.70;;
76336;SDS011;65157;50.082;18.178;2023-02-28T13:16:07;13.40;;;7.00;;
76336;SDS011;65157;50.082;18.178;2023-02-28T13:21:26;16.00;;;9.40;;
76336;SDS011;65157;50.082;18.178;2023-02-28T13:27:10;16.80;;;8.90;;
76336;SDS011;65157;50.082;18.178;2023-02-28T13:39:54;15.80;;;8.50;;
76336;SDS011;65157;50.082;18.178;2023-02-28T13:42:59;16.90;;;8.60;;
76336;SDS011;65157;50.082;18.178;2023-02-28T13:47:55;16.40;;;8.70;;
76336;SDS011;65157;50.082;18.178;2023-02-28T13:50:35;14.90;;;8.90;;
76336;SDS011;65157;50.082;18.178;2023-02-28T14:01:55;16.60;;;8.80;;
76336;SDS011;65157;50.082;18.178;2023-02-28T14:07:20;17.50;;;8.70;;
76336;SDS011;65157;50.082;18.178;2023-02-28T14:09:56;14.90;;;8.10;;
76336;SDS011;65157;50.082;18.178;2023-02-28T14:17:59;14.00;;;8.30;;
76336;SDS011;65157;50.082;18.178;2023-02-28T14:20:29;16.90;;;8.90;;
76336;SDS011;65157;50.082;18.178;2023-02-28T14:24:02;13.90;;;8.60;;
76336;SDS011;65157;50.082;18.178;2023-02-28T14:37:37;19.80;;;9.20;;
76336;SDS011;65157;50.082;18.178;2023-02-28T14:40:21;17.00;;;8.10;;
76336;SDS011;65157;50.082;18.178;2023-02-28T14:43:00;19.30;;;8.70;;
76336;SDS011;65157;50.082;18.178;2023-02-28T14:45:36;16.70;;;8.90;;
76336;SDS011;65157;50.082;18.178;2023-02-28T14:48:08;19.80;;;10.30;;
76336;SDS011;65157;50.082;18.178;2023-02-28T14:50:36;17.10;;;9.10;;
76336;SDS011;65157;50.082;18.178;2023-02-28T14:53:03;20.60;;;9.50;;
76336;SDS011;65157;50.082;18.178;2023-02-28T14:55:33;17.80;;;9.40;;
76336;SDS011;65157;50.082;18.178;2023-02-28T14:58:02;16.20;;;8.70;;
76336;SDS011;65157;50.082;18.178;2023-02-28T15:00:31;16.90;;;9.40;;
76336;SDS011;65157;50.082;18.178;2023-02-28T15:03:11;18.80;;;9.70;;
76336;SDS011;65157;50.082;18.178;2023-02-28T15:06:06;18.30;;;9.60;;
76336;SDS011;65157;50.082;18.178;2023-02-28T15:08:46;18.90;;;10.20;;
76336;SDS011;65157;50.082;18.178;2023-02-28T15:11:16;20.90;;;10.20;;
76336;SDS011;65157;50.082;18.178;2023-02-28T15:13:48;17.40;;;10.00;;
76336;SDS011;65157;50.082;18.178;2023-02-28T15:16:17;25.00;;;12.50;;
76336;SDS011;65157;50.082;18.178;2023-02-28T15:18:48;20.20;;;10.70;;
76336;SDS011;65157;50.082;18.178;2023-02-28T15:21:19;16.50;;;8.50;;
76336;SDS011;65157;50.082;18.178;2023-02-28T15:23:52;18.10;;;8.70;;
76336;SDS011;65157;50.082;18.178;2023-02-28T15:26:32;14.70;;;8.00;;
76336;SDS011;65157;50.082;18.178;2023-02-28T15:29:05;17.20;;;8.40;;
76336;SDS011;65157;50.082;18.178;2023-02-28T15:31:35;15.70;;;8.10;;
76336;SDS011;65157;50.082;18.178;2023-02-28T15:34:15;16.20;;;8.40;;
76336;SDS011;65157;50.082;18.178;2023-02-28T15:36:46;15.10;;;7.60;;
76336;SDS011;65157;50.082;18.178;2023-02-28T15:39:23;14.60;;;8.10;;
76336;SDS011;65157;50.082;18.178;2023-02-28T15:41:51;14.80;;;7.40;;
76336;SDS011;65157;50.082;18.178;2023-02-28T15:44:25;14.70;;;8.40;;
76336;SDS011;65157;50.082;18.178;2023-02-28T15:46:55;13.60;;;8.20;;
76336;SDS011;65157;50.082;18.178;2023-02-28T15:49:40;15.80;;;8.20;;
76336;SDS011;65157;50.082;18.178;2023-02-28T15:55:26;16.10;;;9.50;;
76336;SDS011;65157;50.082;18.178;2023-02-28T15:58:01;18.50;;;10.30;;
76336;SDS011;65157;50.082;18.178;2023-02-28T16:00:29;16.40;;;8.60;;
76336;SDS011;65157;50.082;18.178;2023-02-28T16:02:56;17.10;;;9.10;;
76336;SDS011;65157;50.082;18.178;2023-02-28T16:05:28;14.80;;;9.20;;
76336;SDS011;65157;50.082;18.178;2023-02-28T16:08:00;15.50;;;9.20;;
76336;SDS011;65157;50.082;18.178;2023-02-28T16:13:11;16.60;;;7.40;;
76336;SDS011;65157;50.082;18.178;2023-02-28T16:15:41;16.60;;;9.20;;
76336;SDS011;65157;50.082;18.178;2023-02-28T16:18:09;20.60;;;10.30;;
76336;SDS011;65157;50.082;18.178;2023-02-28T16:20:37;19.50;;;9.60;;
76336;SDS011;65157;50.082;18.178;2023-02-28T16:23:03;26.70;;;12.70;;
76336;SDS011;65157;50.082;18.178;2023-02-28T16:25:37;33.40;;;13.60;;
76336;SDS011;65157;50.082;18.178;2023-02-28T16:30:55;33.10;;;15.60;;
76336;SDS011;65157;50.082;18.178;2023-02-28T16:33:22;35.50;;;17.20;;
76336;SDS011;65157;50.082;18.178;2023-02-28T16:35:48;35.80;;;16.40;;
76336;SDS011;65157;50.082;18.178;2023-02-28T16:38:15;27.10;;;14.50;;
76336;SDS011;65157;50.082;18.178;2023-02-28T16:40:41;25.00;;;13.30;;
76336;SDS011;65157;50.082;18.178;2023-02-28T16:43:07;25.60;;;12.70;;
76336;SDS011;65157;50.082;18.178;2023-02-28T16:45:44;27.50;;;12.30;;
76336;SDS011;65157;50.082;18.178;2023-02-28T16:48:12;31.20;;;14.40;;
76336;SDS011;65157;50.082;18.178;2023-02-28T16:50:43;41.10;;;17.00;;
76336;SDS011;65157;50.082;18.178;2023-02-28T16:53:09;35.90;;;16.10;;
76336;SDS011;65157;50.082;18.178;2023-02-28T16:55:36;34.00;;;15.30;;
76336;SDS011;65157;50.082;18.178;2023-02-28T16:58:02;39.30;;;16.50;;
76336;SDS011;65157;50.082;18.178;2023-02-28T17:00:29;30.50;;;15.70;;
76336;SDS011;65157;50.082;18.178;2023-02-28T17:02:59;31.20;;;15.10;;
76336;SDS011;65157;50.082;18.178;2023-02-28T17:05:25;34.90;;;13.50;;
76336;SDS011;65157;50.082;18.178;2023-02-28T17:07:55;34.60;;;13.10;;
76336;SDS011;65157;50.082;18.178;2023-02-28T17:10:25;28.70;;;11.70;;
76336;SDS011;65157;50.082;18.178;2023-02-28T17:13:05;32.90;;;12.80;;
76336;SDS011;65157;50.082;18.178;2023-02-28T17:15:31;24.10;;;11.60;;
76336;SDS011;65157;50.082;18.178;2023-02-28T17:17:58;23.60;;;11.40;;
76336;SDS011;65157;50.082;18.178;2023-02-28T17:20:24;24.70;;;10.60;;
76336;SDS011;65157;50.082;18.178;2023-02-28T17:22:52;22.20;;;9.70;;
76336;SDS011;65157;50.082;18.178;2023-02-28T17:25:20;18.50;;;9.00;;